Time;durP1;ratioP1;P1;durP2;ratioP2;P2;SDS_P1;SDS_P2;PMS_P1;PMS_P2;Temp;Humidity;BMP_temperature;BMP_pressure;BME280_temperature;BME280_humidity;BME280_pressure;Samples;Min_cycle;Max_cycle;Signal;HPM_P1;HPM_P2
2022/12/18 00:02:07;;;;;;;87.05;48.20;;;-3.50;99.90;;;;;;5028662;28;20033;-52
2022/12/18 00:04:33;;;;;;;89.65;43.65;;;-3.50;99.90;;;;;;5028934;28;20017;-54
2022/12/18 00:06:58;;;;;;;100.90;46.70;;;-3.50;99.90;;;;;;5028667;28;20520;-52
2022/12/18 00:09:24;;;;;;;91.47;44.22;;;-3.50;99.90;;;;;;5028808;28;20172;-55
2022/12/18 00:11:50;;;;;;;91.35;43.63;;;-3.60;99.90;;;;;;5028609;28;20093;-56
2022/12/18 00:14:15;;;;;;;95.97;46.90;;;-3.60;99.90;;;;;;5028660;28;20029;-51
2022/12/18 00:16:44;;;;;;;119.72;50.05;;;-3.60;99.90;;;;;;5028733;28;20112;-53
2022/12/18 00:19:14;;;;;;;107.90;51.85;;;-3.60;99.90;;;;;;5028524;28;20378;-53
2022/12/18 00:21:41;;;;;;;104.03;48.90;;;-3.60;99.90;;;;;;5028727;28;20116;-53
2022/12/18 00:24:08;;;;;;;97.78;46.05;;;-3.60;99.90;;;;;;5028416;28;20033;-56
2022/12/18 00:26:35;;;;;;;99.15;47.10;;;-3.70;99.90;;;;;;5028642;28;20109;-54
2022/12/18 00:29:07;;;;;;;99.72;46.70;;;-3.70;99.90;;;;;;5028387;28;20030;-52
2022/12/18 00:31:32;;;;;;;86.38;44.22;;;-3.60;99.90;;;;;;5028727;28;20101;-50
2022/12/18 00:33:58;;;;;;;89.13;42.80;;;-3.70;99.90;;;;;;5028372;28;20109;-52
2022/12/18 00:36:33;;;;;;;81.28;40.45;;;-3.70;99.90;;;;;;5028423;28;20458;-51
2022/12/18 00:39:00;;;;;;;94.78;45.38;;;-3.70;99.90;;;;;;5028474;28;20026;-53
2022/12/18 00:44:13;;;;;;;83.90;40.10;;;-3.80;99.90;;;;;;5027979;28;20029;-52
2022/12/18 00:46:39;;;;;;;74.13;38.50;;;-3.90;99.90;;;;;;5028411;28;20029;-52
2022/12/18 00:49:04;;;;;;;78.03;39.20;;;-3.90;99.90;;;;;;5028077;28;20079;-54
2022/12/18 00:51:30;;;;;;;89.35;41.22;;;-3.90;99.90;;;;;;5028502;28;20589;-51
2022/12/18 00:53:56;;;;;;;91.43;45.28;;;-3.90;99.90;;;;;;5028263;28;20051;-52
2022/12/18 00:56:22;;;;;;;92.95;46.80;;;-3.90;99.90;;;;;;5028102;28;20510;-52
2022/12/18 00:58:48;;;;;;;103.72;43.65;;;-3.90;99.90;;;;;;5028168;28;20025;-52
2022/12/18 01:01:15;;;;;;;88.00;43.08;;;-3.80;99.90;;;;;;5028088;28;20092;-54
2022/12/18 01:03:41;;;;;;;101.50;42.95;;;-3.90;99.90;;;;;;5028383;28;20017;-53
2022/12/18 01:06:11;;;;;;;97.32;44.53;;;-3.80;99.90;;;;;;5031642;28;20428;-55
2022/12/18 01:08:38;;;;;;;93.63;43.15;;;-3.90;99.90;;;;;;5030127;28;20093;-50
2022/12/18 01:11:15;;;;;;;90.25;44.00;;;-3.90;99.90;;;;;;5031277;28;20024;-51
2022/12/18 01:13:41;;;;;;;88.90;42.65;;;-3.90;99.90;;;;;;5031371;28;20029;-52
2022/12/18 01:16:08;;;;;;;83.70;42.28;;;-3.90;99.90;;;;;;5031409;28;20067;-51
2022/12/18 01:18:34;;;;;;;85.10;40.85;;;-3.90;99.90;;;;;;5031490;28;20025;-52
2022/12/18 01:21:00;;;;;;;93.03;43.83;;;-3.90;99.90;;;;;;5031277;28;20044;-53
2022/12/18 01:23:28;;;;;;;98.55;46.20;;;-3.90;99.90;;;;;;5031099;28;20021;-52
2022/12/18 01:25:54;;;;;;;92.93;44.45;;;-3.90;99.90;;;;;;5031337;28;20405;-53
2022/12/18 01:28:20;;;;;;;100.60;45.28;;;-3.90;99.90;;;;;;5031243;28;20045;-51
2022/12/18 01:30:45;;;;;;;110.38;47.65;;;-3.90;99.90;;;;;;5029852;28;20037;-53
2022/12/18 01:33:11;;;;;;;99.82;46.25;;;-4.00;99.90;;;;;;5031295;28;20030;-52
2022/12/18 01:35:41;;;;;;;104.47;48.13;;;-3.90;99.90;;;;;;5031217;28;20457;-53
2022/12/18 01:38:07;;;;;;;105.85;51.35;;;-3.90;99.90;;;;;;5030963;28;20380;-54
2022/12/18 01:40:33;;;;;;;106.40;50.10;;;-3.90;99.90;;;;;;5031199;28;20030;-54
2022/12/18 01:42:59;;;;;;;106.88;49.20;;;-3.90;99.90;;;;;;5031055;28;20044;-51
2022/12/18 01:45:30;;;;;;;108.85;48.15;;;-3.90;99.90;;;;;;5030913;28;20029;-54
2022/12/18 01:48:06;;;;;;;118.03;50.88;;;-3.90;99.90;;;;;;5030952;28;20033;-54
2022/12/18 01:50:39;;;;;;;111.50;51.35;;;-3.80;99.90;;;;;;5031040;28;20021;-55
2022/12/18 01:53:15;;;;;;;115.25;51.47;;;-3.80;99.90;;;;;;5030803;28;20108;-52
2022/12/18 01:55:51;;;;;;;119.15;54.88;;;-3.80;99.90;;;;;;5030784;28;20117;-50
2022/12/18 01:58:19;;;;;;;119.65;51.80;;;-3.70;99.90;;;;;;5030433;28;20403;-51
2022/12/18 02:00:45;;;;;;;130.40;52.90;;;-3.80;99.90;;;;;;5029699;28;20428;-50
2022/12/18 02:03:11;;;;;;;119.50;53.50;;;-3.80;99.90;;;;;;5029844;28;20025;-51
2022/12/18 02:05:44;;;;;;;133.40;53.47;;;-3.70;99.90;;;;;;5030453;28;20030;-49
2022/12/18 02:08:39;;;;;;;120.07;53.60;;;-3.70;99.90;;;;;;5029564;28;20021;-49
2022/12/18 02:11:17;;;;;;;133.05;52.30;;;-3.70;99.90;;;;;;5029142;28;20017;-52
2022/12/18 02:13:42;;;;;;;128.15;52.63;;;-3.70;99.90;;;;;;5029922;28;20030;-53
2022/12/18 02:16:25;;;;;;;129.77;55.83;;;-3.60;99.90;;;;;;5029321;28;20025;-53
2022/12/18 02:18:57;;;;;;;127.23;54.30;;;-3.70;99.90;;;;;;5030449;28;20078;-53
2022/12/18 02:21:47;;;;;;;143.68;59.45;;;-3.70;99.90;;;;;;5030424;28;20021;-52
2022/12/18 02:24:32;;;;;;;116.38;52.38;;;-3.70;99.90;;;;;;5030431;28;20029;-52
2022/12/18 02:27:05;;;;;;;143.25;56.15;;;-3.70;99.90;;;;;;5030165;28;20117;-52
2022/12/18 02:30:04;;;;;;;136.27;54.85;;;-3.70;99.90;;;;;;5030380;28;20430;-52
2022/12/18 02:32:40;;;;;;;121.90;52.30;;;-3.70;99.90;;;;;;4996562;28;20102;-53
2022/12/18 02:35:11;;;;;;;129.10;54.40;;;-3.60;99.90;;;;;;5030008;28;20029;-52
2022/12/18 02:37:39;;;;;;;122.70;53.90;;;-3.60;99.90;;;;;;5030170;28;20120;-52
2022/12/18 02:40:06;;;;;;;123.22;53.42;;;-3.60;99.90;;;;;;5030142;28;20086;-56
2022/12/18 02:42:33;;;;;;;115.32;50.70;;;-3.50;99.90;;;;;;5030017;28;20029;-55
2022/12/18 02:44:58;;;;;;;105.43;46.85;;;-3.50;99.90;;;;;;5030102;28;20030;-50
2022/12/18 02:47:30;;;;;;;109.32;48.05;;;-3.50;99.90;;;;;;5029902;28;20025;-54
2022/12/18 02:50:14;;;;;;;113.47;50.85;;;-3.60;99.90;;;;;;5029980;28;20030;-55
2022/12/18 02:53:04;;;;;;;99.47;45.20;;;-3.60;99.90;;;;;;5028744;28;20044;-54
2022/12/18 02:55:53;;;;;;;102.10;44.72;;;-3.60;99.90;;;;;;5030031;28;20026;-54
2022/12/18 02:58:45;;;;;;;95.93;44.70;;;-3.70;99.90;;;;;;5029856;28;20032;-51
2022/12/18 03:01:13;;;;;;;98.57;44.10;;;-3.70;99.90;;;;;;5006273;28;20041;-56
2022/12/18 03:03:47;;;;;;;110.15;47.13;;;-3.70;99.90;;;;;;5029988;28;20029;-54
2022/12/18 03:06:23;;;;;;;94.97;41.42;;;-3.70;99.90;;;;;;5029598;28;20052;-55
2022/12/18 03:08:53;;;;;;;99.25;40.97;;;-3.70;99.90;;;;;;5028361;28;20064;-50
2022/12/18 03:12:22;;;;;;;101.63;43.35;;;-3.70;99.90;;;;;;5029329;28;20020;-52
2022/12/18 03:14:07;;;;;;;89.88;40.60;;;-3.70;99.90;;;;;;5029274;28;20493;-51
2022/12/18 03:16:34;;;;;;;88.65;39.00;;;-3.90;99.90;;;;;;5029816;28;20082;-50
2022/12/18 03:19:09;;;;;;;104.43;38.88;;;-3.90;99.90;;;;;;5029621;28;20030;-52
2022/12/18 03:21:47;;;;;;;107.82;40.35;;;-3.90;99.90;;;;;;5029716;28;20039;-51
2022/12/18 03:24:14;;;;;;;98.82;42.08;;;-3.90;99.90;;;;;;5029268;28;20410;-55
2022/12/18 03:26:45;;;;;;;87.57;39.15;;;-3.90;99.90;;;;;;5029242;28;20021;-51
2022/12/18 03:29:21;;;;;;;96.80;39.10;;;-3.90;99.90;;;;;;5028015;28;20022;-52
2022/12/18 03:31:53;;;;;;;98.53;40.80;;;-4.00;99.90;;;;;;5029591;28;20070;-54
2022/12/18 03:34:30;;;;;;;96.80;41.25;;;-3.90;99.90;;;;;;5029169;28;20025;-52
2022/12/18 03:36:57;;;;;;;99.57;40.63;;;-3.90;99.90;;;;;;5029570;28;20021;-54
2022/12/18 03:39:23;;;;;;;103.10;39.40;;;-3.90;99.90;;;;;;5027770;28;20620;-52
2022/12/18 03:41:58;;;;;;;113.90;42.22;;;-3.90;99.90;;;;;;5028019;28;20034;-50
2022/12/18 03:44:39;;;;;;;93.25;38.00;;;-3.90;99.90;;;;;;5029069;28;20582;-53
2022/12/18 03:47:16;;;;;;;104.15;41.28;;;-3.90;99.90;;;;;;5029080;28;20128;-52
2022/12/18 03:49:53;;;;;;;93.68;38.53;;;-3.90;99.90;;;;;;5029179;28;20127;-52
2022/12/18 03:52:39;;;;;;;81.90;37.67;;;-3.90;99.90;;;;;;5029016;28;20026;-52
2022/12/18 03:55:06;;;;;;;106.10;39.25;;;-4.00;99.90;;;;;;5028849;28;20405;-56
2022/12/18 03:57:33;;;;;;;76.93;37.10;;;-4.00;99.90;;;;;;5029061;28;20041;-51
2022/12/18 04:00:05;;;;;;;97.78;41.58;;;-4.00;99.90;;;;;;5028940;28;20056;-52
2022/12/18 04:02:33;;;;;;;95.20;39.78;;;-4.00;99.90;;;;;;5029026;28;20392;-55
2022/12/18 04:05:02;;;;;;;109.30;42.75;;;-3.90;99.90;;;;;;5028769;28;20024;-52
2022/12/18 04:07:28;;;;;;;108.63;39.25;;;-3.90;99.90;;;;;;5027727;28;20121;-56
2022/12/18 04:09:57;;;;;;;105.35;42.78;;;-4.00;99.90;;;;;;5028759;28;20039;-54
2022/12/18 04:12:28;;;;;;;93.95;39.10;;;-4.00;99.90;;;;;;5028531;28;20046;-50
2022/12/18 04:14:54;;;;;;;98.30;38.00;;;-4.00;99.90;;;;;;5028673;28;20389;-51
2022/12/18 04:17:20;;;;;;;98.07;37.97;;;-4.00;99.90;;;;;;5028524;28;20022;-52
2022/12/18 04:19:45;;;;;;;84.22;37.10;;;-4.00;99.90;;;;;;5028914;28;20037;-53
2022/12/18 04:22:11;;;;;;;85.25;37.17;;;-4.10;99.90;;;;;;5028508;28;20338;-55
2022/12/18 04:24:37;;;;;;;79.53;34.45;;;-4.10;99.90;;;;;;5028677;28;20354;-54
2022/12/18 04:27:03;;;;;;;89.45;39.65;;;-4.10;99.90;;;;;;5028337;28;20045;-52
2022/12/18 04:29:29;;;;;;;96.53;37.45;;;-4.10;99.90;;;;;;5028731;28;20025;-52
2022/12/18 04:31:54;;;;;;;92.70;38.08;;;-4.10;99.90;;;;;;5028632;28;20045;-52
2022/12/18 04:34:21;;;;;;;116.82;40.72;;;-4.10;99.90;;;;;;5028420;28;20162;-51
2022/12/18 04:36:46;;;;;;;115.85;40.55;;;-4.20;99.90;;;;;;5028495;28;20029;-51
2022/12/18 04:39:12;;;;;;;123.00;41.45;;;-4.10;99.90;;;;;;5029193;28;20035;-54
2022/12/18 04:41:38;;;;;;;147.73;41.47;;;-4.20;99.90;;;;;;5032210;28;20111;-52
2022/12/18 04:44:04;;;;;;;111.50;41.08;;;-4.20;99.90;;;;;;5031647;28;20055;-50
2022/12/18 04:46:30;;;;;;;111.50;43.38;;;-4.10;99.90;;;;;;5032085;28;20036;-54
2022/12/18 04:48:55;;;;;;;111.75;43.60;;;-4.20;99.90;;;;;;5032004;28;20100;-52
2022/12/18 04:51:21;;;;;;;100.93;45.60;;;-4.10;99.90;;;;;;5031802;28;20018;-54
2022/12/18 04:53:47;;;;;;;121.60;44.85;;;-4.10;99.90;;;;;;5030509;28;20030;-51
2022/12/18 04:56:14;;;;;;;113.63;44.83;;;-4.10;99.90;;;;;;5031577;28;20158;-54
2022/12/18 04:58:42;;;;;;;147.13;49.45;;;-4.10;99.90;;;;;;5031929;28;20026;-51
2022/12/18 05:01:08;;;;;;;181.32;51.85;;;-4.20;99.90;;;;;;5031437;28;20034;-54
2022/12/18 05:03:35;;;;;;;168.65;52.78;;;-4.30;99.90;;;;;;5031796;28;20053;-52
2022/12/18 05:06:01;;;;;;;157.48;52.22;;;-4.30;99.90;;;;;;5031437;28;20037;-52
2022/12/18 05:08:27;;;;;;;162.55;52.28;;;-4.30;99.90;;;;;;5031353;28;20029;-51
2022/12/18 05:10:59;;;;;;;154.50;50.63;;;-4.30;99.90;;;;;;5030372;28;20022;-52
2022/12/18 05:13:25;;;;;;;199.45;53.17;;;-4.30;99.90;;;;;;5031276;28;20041;-51
2022/12/18 05:15:52;;;;;;;156.32;49.78;;;-4.40;99.90;;;;;;5031480;28;20033;-51
2022/12/18 05:18:18;;;;;;;183.25;53.97;;;-4.50;99.90;;;;;;5031298;28;20029;-54
2022/12/18 05:20:43;;;;;;;140.80;51.35;;;-4.50;99.90;;;;;;5031348;28;20036;-53
2022/12/18 05:23:09;;;;;;;219.75;51.47;;;-4.40;99.90;;;;;;5029974;28;20032;-52
2022/12/18 05:25:35;;;;;;;179.02;49.20;;;-4.50;99.90;;;;;;5031406;28;20390;-54
2022/12/18 05:28:00;;;;;;;210.98;50.05;;;-4.40;99.90;;;;;;5031279;28;20045;-55
2022/12/18 05:30:27;;;;;;;164.90;48.85;;;-4.50;99.90;;;;;;5031225;28;20380;-55
2022/12/18 05:32:53;;;;;;;158.98;49.05;;;-4.60;99.90;;;;;;5031084;28;20045;-52
2022/12/18 05:35:19;;;;;;;133.38;46.47;;;-4.60;99.90;;;;;;5031088;28;20057;-50
2022/12/18 05:37:44;;;;;;;129.48;46.67;;;-4.60;99.90;;;;;;5031124;28;20082;-51
2022/12/18 05:40:15;;;;;;;134.73;45.45;;;-4.60;99.90;;;;;;5031151;28;20024;-51
2022/12/18 05:42:41;;;;;;;124.10;43.90;;;-4.60;99.90;;;;;;5031028;28;20037;-52
2022/12/18 05:45:07;;;;;;;119.57;43.92;;;-4.60;99.90;;;;;;5031019;28;20030;-55
2022/12/18 05:47:33;;;;;;;132.70;43.05;;;-4.60;99.90;;;;;;5030955;28;20025;-51
2022/12/18 05:49:58;;;;;;;116.60;43.08;;;-4.60;99.90;;;;;;5030219;28;20026;-54
2022/12/18 05:52:24;;;;;;;129.13;43.55;;;-4.60;99.90;;;;;;5030183;28;20029;-51
2022/12/18 05:54:50;;;;;;;123.88;45.58;;;-4.60;99.90;;;;;;5030948;28;20053;-54
2022/12/18 05:57:15;;;;;;;93.57;41.22;;;-4.60;99.90;;;;;;5030729;28;20022;-51
2022/12/18 05:59:41;;;;;;;121.63;39.35;;;-4.60;99.90;;;;;;5030939;28;20112;-53
2022/12/18 06:02:07;;;;;;;135.38;41.72;;;-4.60;99.90;;;;;;5030587;28;20033;-51
2022/12/18 06:04:32;;;;;;;146.63;39.13;;;-4.70;99.90;;;;;;5030773;28;20029;-53
2022/12/18 06:06:58;;;;;;;170.93;42.22;;;-4.80;99.90;;;;;;5030576;28;20052;-55
2022/12/18 06:09:24;;;;;;;114.20;40.70;;;-4.90;99.90;;;;;;5030725;28;20078;-50
2022/12/18 06:11:52;;;;;;;152.63;41.47;;;-4.90;99.90;;;;;;5030634;28;20045;-53
2022/12/18 06:14:17;;;;;;;149.00;40.90;;;-4.90;99.90;;;;;;5030483;28;20562;-54
2022/12/18 06:16:43;;;;;;;158.93;38.80;;;-5.00;99.90;;;;;;5030706;28;20010;-53
2022/12/18 06:19:15;;;;;;;221.90;42.83;;;-5.00;99.90;;;;;;5030338;28;20369;-52
2022/12/18 06:21:41;;;;;;;140.50;36.88;;;-5.10;99.90;;;;;;5030540;28;20025;-51
2022/12/18 06:24:07;;;;;;;151.82;36.85;;;-5.10;99.90;;;;;;5030437;28;20506;-53
2022/12/18 06:26:33;;;;;;;121.75;36.33;;;-5.20;99.90;;;;;;5030272;28;20029;-51
2022/12/18 06:28:58;;;;;;;134.50;38.50;;;-5.20;99.90;;;;;;5030542;28;20034;-53
2022/12/18 06:31:25;;;;;;;125.53;39.33;;;-5.30;99.90;;;;;;5030116;28;20381;-52
2022/12/18 06:33:50;;;;;;;156.40;38.42;;;-5.30;99.90;;;;;;5030311;28;20021;-51
2022/12/18 06:36:16;;;;;;;115.47;37.95;;;-5.20;99.90;;;;;;5030148;28;20410;-52
2022/12/18 06:38:43;;;;;;;86.30;36.65;;;-5.20;99.90;;;;;;5030159;28;20022;-52
2022/12/18 06:41:12;;;;;;;136.40;37.28;;;-5.20;99.90;;;;;;5030058;28;20033;-54
2022/12/18 06:43:38;;;;;;;142.43;37.05;;;-5.30;99.90;;;;;;5030156;28;20384;-51
2022/12/18 06:46:04;;;;;;;129.07;37.03;;;-5.30;99.90;;;;;;5028644;28;20033;-54
2022/12/18 06:48:30;;;;;;;184.27;40.78;;;-5.30;99.90;;;;;;5029948;28;20060;-52
2022/12/18 06:50:56;;;;;;;213.77;38.47;;;-5.40;99.90;;;;;;5030185;28;20029;-52
2022/12/18 06:53:22;;;;;;;105.93;37.38;;;-5.40;99.90;;;;;;5029644;28;20029;-53
2022/12/18 06:55:48;;;;;;;102.55;36.30;;;-5.40;99.90;;;;;;5030109;28;20490;-52
2022/12/18 06:58:14;;;;;;;109.10;39.08;;;-5.40;99.90;;;;;;5029847;28;20033;-52
2022/12/18 07:00:39;;;;;;;106.88;36.15;;;-5.30;99.90;;;;;;5029764;28;20058;-55
2022/12/18 07:03:05;;;;;;;108.35;36.83;;;-5.30;99.90;;;;;;5028057;28;20048;-52
2022/12/18 07:05:30;;;;;;;101.05;35.72;;;-5.30;99.90;;;;;;5029665;28;20492;-53
2022/12/18 07:07:56;;;;;;;94.82;35.38;;;-5.30;99.90;;;;;;5029883;28;20041;-53
2022/12/18 07:10:22;;;;;;;184.95;39.10;;;-5.30;99.90;;;;;;5029363;28;20030;-51
2022/12/18 07:12:47;;;;;;;175.45;38.38;;;-5.30;99.90;;;;;;5028991;28;20132;-52
2022/12/18 07:15:13;;;;;;;197.27;49.78;;;-5.30;99.90;;;;;;5028700;28;20053;-53
2022/12/18 07:17:39;;;;;;;174.38;40.42;;;-5.40;99.90;;;;;;5028495;28;20030;-52
2022/12/18 07:20:05;;;;;;;158.70;39.85;;;-5.40;99.90;;;;;;5029221;28;20036;-49
2022/12/18 07:22:30;;;;;;;148.05;42.13;;;-5.40;99.90;;;;;;5028475;28;20108;-54
2022/12/18 07:24:56;;;;;;;102.85;37.83;;;-5.40;99.90;;;;;;5028443;28;20154;-52
2022/12/18 07:27:22;;;;;;;129.57;38.78;;;-5.30;99.90;;;;;;5028728;28;20038;-50
2022/12/18 07:29:48;;;;;;;103.80;37.42;;;-5.20;99.90;;;;;;5028761;28;20018;-51
2022/12/18 07:32:13;;;;;;;137.40;38.00;;;-5.10;99.90;;;;;;5029252;28;20022;-53
2022/12/18 07:34:39;;;;;;;96.32;34.65;;;-5.10;99.90;;;;;;5029207;28;20030;-55
2022/12/18 07:37:05;;;;;;;128.48;40.15;;;-5.00;99.90;;;;;;5029153;28;20029;-55
2022/12/18 07:39:31;;;;;;;85.57;34.40;;;-5.00;99.90;;;;;;5029265;28;20021;-50
2022/12/18 07:44:41;;;;;;;80.97;34.97;;;-5.10;99.90;;;;;;5029090;28;20127;-56
2022/12/18 07:47:06;;;;;;;90.68;37.08;;;-5.00;99.90;;;;;;5029007;28;20033;-56
2022/12/18 07:49:32;;;;;;;83.90;33.28;;;-5.00;99.90;;;;;;5029193;28;20056;-51
2022/12/18 07:51:58;;;;;;;170.55;38.42;;;-5.00;99.90;;;;;;5029169;28;20607;-51
2022/12/18 07:54:24;;;;;;;175.48;39.45;;;-5.00;99.90;;;;;;5029170;28;20041;-52
2022/12/18 07:56:51;;;;;;;89.85;34.72;;;-5.20;99.90;;;;;;5027682;28;20026;-51
2022/12/18 07:59:17;;;;;;;124.88;36.67;;;-5.10;99.90;;;;;;5028733;28;20498;-50
2022/12/18 08:01:42;;;;;;;126.85;40.78;;;-5.00;99.90;;;;;;5028780;28;20104;-51
2022/12/18 08:04:08;;;;;;;115.68;36.50;;;-5.00;99.90;;;;;;5028487;28;20129;-51
2022/12/18 08:06:33;;;;;;;125.65;39.22;;;-4.90;99.90;;;;;;5028640;28;20043;-53
2022/12/18 08:08:59;;;;;;;127.13;36.85;;;-4.90;99.90;;;;;;5028745;28;20517;-50
2022/12/18 08:11:27;;;;;;;109.72;32.55;;;-4.80;99.90;;;;;;5028501;28;20061;-51
2022/12/18 08:13:53;;;;;;;118.20;37.70;;;-4.80;99.90;;;;;;5027676;28;20029;-54
2022/12/18 08:16:20;;;;;;;138.73;43.67;;;-4.70;99.90;;;;;;5028760;28;20439;-52
2022/12/18 08:18:45;;;;;;;132.43;42.42;;;-4.50;99.90;;;;;;5039949;28;20029;-50
2022/12/18 08:21:18;;;;;;;97.80;35.72;;;-4.60;99.90;;;;;;5048417;28;20048;-51
2022/12/18 08:23:44;;;;;;;80.95;34.20;;;-4.50;99.90;;;;;;5110740;27;20031;-51
2022/12/18 08:26:13;;;;;;;112.38;29.38;;;-4.40;99.90;;;;;;5152916;27;20022;-52
2022/12/18 08:28:39;;;;;;;78.45;31.08;;;-4.50;99.90;;;;;;5152405;27;20339;-56
2022/12/18 08:31:05;;;;;;;86.50;36.42;;;-4.40;99.90;;;;;;5152761;27;20027;-51
2022/12/18 08:33:31;;;;;;;90.30;30.77;;;-4.50;99.90;;;;;;5152433;27;20034;-53
2022/12/18 08:35:59;;;;;;;78.43;29.60;;;-4.60;99.90;;;;;;5152975;27;20015;-59
2022/12/18 08:38:25;;;;;;;65.88;29.38;;;-4.60;99.90;;;;;;5151644;27;20027;-54
2022/12/18 08:41:02;;;;;;;93.55;30.45;;;-4.50;99.90;;;;;;5152888;27;20023;-52
2022/12/18 08:49:34;;;;;;;84.30;29.85;;;-4.70;99.90;;;;;;5151844;27;20075;-50
2022/12/18 08:52:02;;;;;;;77.50;29.63;;;-4.60;99.90;;;;;;5152568;27;20029;-52
2022/12/18 08:54:28;;;;;;;103.80;33.45;;;-4.70;99.90;;;;;;5151663;27;20034;-54
2022/12/18 08:56:54;;;;;;;73.88;27.85;;;-4.70;99.90;;;;;;5152683;27;20071;-51
2022/12/18 08:59:19;;;;;;;77.43;31.83;;;-4.60;99.90;;;;;;5151611;27;20227;-55
2022/12/18 09:01:46;;;;;;;87.30;40.65;;;-4.50;99.90;;;;;;5152139;27;20041;-56
2022/12/18 09:04:13;;;;;;;78.82;33.72;;;-4.40;99.90;;;;;;5151954;27;20022;-51
2022/12/18 09:06:40;;;;;;;100.10;48.42;;;-4.30;99.90;;;;;;5152525;27;20023;-52
2022/12/18 09:09:06;;;;;;;140.10;67.35;;;-4.20;99.90;;;;;;5151922;27;20524;-50
2022/12/18 09:11:32;;;;;;;167.07;83.57;;;-4.30;99.90;;;;;;5152371;27;20057;-54
2022/12/18 09:14:00;;;;;;;85.07;40.58;;;-4.30;99.90;;;;;;5152064;27;20027;-54
2022/12/18 09:16:27;;;;;;;375.88;175.48;;;-4.20;99.90;;;;;;5152315;27;20065;-55
2022/12/18 09:18:59;;;;;;;71.90;37.28;;;-4.10;99.90;;;;;;5151872;27;20386;-52
2022/12/18 09:21:28;;;;;;;66.03;33.73;;;-4.10;99.90;;;;;;5152464;27;20046;-54
2022/12/18 09:23:56;;;;;;;63.00;30.38;;;-4.10;99.90;;;;;;5151818;27;20062;-55
2022/12/18 09:26:23;;;;;;;51.83;26.67;;;-4.10;99.90;;;;;;5155554;27;20048;-56
2022/12/18 09:28:49;;;;;;;57.65;35.50;;;-4.00;99.90;;;;;;5155133;27;20040;-54
2022/12/18 09:31:15;;;;;;;63.70;35.67;;;-3.90;99.90;;;;;;5155118;27;20106;-51
2022/12/18 09:33:41;;;;;;;50.67;26.63;;;-4.00;99.90;;;;;;5154163;27;20023;-52
2022/12/18 09:36:09;;;;;;;54.28;29.17;;;-3.90;99.90;;;;;;5154915;27;20026;-51
2022/12/18 09:38:35;;;;;;;62.63;32.17;;;-4.00;99.90;;;;;;5153992;27;20026;-50
2022/12/18 09:41:31;;;;;;;56.95;28.95;;;-4.10;99.90;;;;;;5155016;27;20050;-54
2022/12/18 09:44:29;;;;;;;60.72;27.85;;;-3.90;99.90;;;;;;5153881;27;20055;-51
2022/12/18 09:47:23;;;;;;;56.40;29.75;;;-3.60;99.90;;;;;;5154563;27;20026;-50
2022/12/18 09:49:58;;;;;;;97.07;48.78;;;-3.40;99.90;;;;;;5153897;27;20015;-50
2022/12/18 09:52:27;;;;;;;98.80;46.63;;;-3.30;99.90;;;;;;5136680;27;20028;-49
2022/12/18 09:55:16;;;;;;;187.93;89.43;;;-3.40;99.90;;;;;;5136732;27;20022;-51
2022/12/18 09:57:49;;;;;;;205.55;87.13;;;-3.40;99.90;;;;;;5155410;27;20023;-51
2022/12/18 10:00:25;;;;;;;188.00;84.45;;;-3.50;99.90;;;;;;5155210;27;20027;-52
2022/12/18 10:02:53;;;;;;;252.40;104.43;;;-3.60;99.90;;;;;;5155520;27;20098;-49
2022/12/18 10:05:58;;;;;;;108.75;52.90;;;-3.60;99.90;;;;;;5154078;27;20038;-52
2022/12/18 10:08:29;;;;;;;58.53;31.98;;;-3.60;99.90;;;;;;5153880;27;20252;-53
2022/12/18 10:11:09;;;;;;;69.32;39.47;;;-3.40;99.90;;;;;;5155707;27;20029;-53
2022/12/18 10:13:46;;;;;;;44.85;25.88;;;-3.10;99.90;;;;;;5154614;27;20058;-50
2022/12/18 10:16:30;;;;;;;57.90;32.05;;;-3.10;99.90;;;;;;5155479;27;20068;-52
2022/12/18 10:19:29;;;;;;;54.15;30.55;;;-3.40;99.90;;;;;;5154065;27;20027;-51
2022/12/18 10:22:11;;;;;;;61.65;31.42;;;-3.40;99.90;;;;;;5155410;27;20024;-55
2022/12/18 10:24:49;;;;;;;60.25;31.13;;;-3.30;99.90;;;;;;5154266;27;20023;-53
2022/12/18 10:27:18;;;;;;;54.10;27.00;;;-3.30;99.90;;;;;;5155265;27;20355;-51
2022/12/18 10:29:45;;;;;;;48.83;28.23;;;-3.40;99.90;;;;;;5154311;27;20052;-50
2022/12/18 10:32:20;;;;;;;48.22;27.90;;;-3.50;99.90;;;;;;5155270;27;20023;-52
2022/12/18 10:34:47;;;;;;;55.17;28.67;;;-3.50;99.90;;;;;;5154350;27;20468;-52
2022/12/18 10:37:18;;;;;;;81.70;43.22;;;-3.40;99.90;;;;;;5154363;27;20026;-54
2022/12/18 10:39:45;;;;;;;84.03;43.75;;;-3.50;99.90;;;;;;5154002;27;20031;-55
2022/12/18 10:42:19;;;;;;;60.95;33.45;;;-3.30;99.90;;;;;;5137650;27;20028;-51
2022/12/18 10:44:45;;;;;;;133.27;66.72;;;-3.20;99.90;;;;;;5050303;27;20464;-54
2022/12/18 10:47:15;;;;;;;138.48;60.47;;;-3.00;99.90;;;;;;5049633;28;20387;-52
2022/12/18 10:49:52;;;;;;;87.18;41.70;;;-3.10;99.90;;;;;;5050400;27;20051;-54
2022/12/18 10:52:24;;;;;;;181.77;75.25;;;-3.00;99.90;;;;;;5049584;28;20121;-52
2022/12/18 10:55:13;;;;;;;217.50;102.07;;;-3.10;99.90;;;;;;5050425;27;20465;-50
2022/12/18 10:57:41;;;;;;;127.38;64.72;;;-3.10;99.90;;;;;;5049541;28;20033;-53
2022/12/18 11:00:19;;;;;;;91.63;51.78;;;-3.50;99.90;;;;;;5050378;27;20052;-55
2022/12/18 11:02:45;;;;;;;47.40;27.13;;;-3.40;99.90;;;;;;5049778;28;20112;-55
2022/12/18 11:05:42;;;;;;;46.22;25.42;;;-3.40;99.90;;;;;;5050128;27;20146;-54
2022/12/18 11:08:22;;;;;;;39.92;24.08;;;-3.30;99.90;;;;;;5026405;28;20033;-53
2022/12/18 11:10:48;;;;;;;41.65;22.40;;;-3.30;99.90;;;;;;5049861;27;20040;-54
2022/12/18 11:13:25;;;;;;;45.78;23.52;;;-3.50;99.90;;;;;;5049266;28;20053;-50
2022/12/18 11:15:51;;;;;;;42.78;23.80;;;-3.30;99.90;;;;;;5029641;28;20040;-51
2022/12/18 11:18:30;;;;;;;33.70;20.13;;;-2.90;99.90;;;;;;5029654;28;20022;-52
2022/12/18 11:21:06;;;;;;;37.72;21.75;;;-2.90;99.90;;;;;;5029418;28;20380;-51
2022/12/18 11:23:32;;;;;;;36.33;20.15;;;-3.20;99.90;;;;;;5030524;27;20049;-52
2022/12/18 11:26:03;;;;;;;36.38;20.08;;;-2.90;99.90;;;;;;5049205;28;20329;-52
2022/12/18 11:29:06;;;;;;;41.58;22.98;;;-3.00;99.90;;;;;;5049286;28;20029;-52
2022/12/18 11:31:33;;;;;;;35.92;21.40;;;-3.10;99.90;;;;;;5049166;28;20464;-53
2022/12/18 11:34:09;;;;;;;39.25;21.95;;;-3.30;99.90;;;;;;5050022;27;20033;-51
2022/12/18 11:36:46;;;;;;;37.53;21.45;;;-3.10;99.90;;;;;;5049014;28;20418;-53
2022/12/18 11:39:35;;;;;;;38.47;21.55;;;-2.70;99.90;;;;;;5023396;27;20480;-54
2022/12/18 11:42:19;;;;;;;32.97;18.65;;;-2.90;99.90;;;;;;5036129;28;20098;-53
2022/12/18 11:44:59;;;;;;;38.17;22.55;;;-2.90;99.90;;;;;;5021576;27;20392;-54
2022/12/18 11:47:29;;;;;;;29.42;19.55;;;-3.00;99.90;;;;;;5018529;28;20026;-52
2022/12/18 11:49:59;;;;;;;39.47;21.00;;;-2.90;99.90;;;;;;5026973;27;20022;-52
2022/12/18 11:52:37;;;;;;;35.00;22.75;;;-3.20;99.90;;;;;;5018413;28;20060;-53
2022/12/18 11:55:20;;;;;;;43.70;24.92;;;-3.10;99.90;;;;;;5020075;27;20377;-55
2022/12/18 11:57:58;;;;;;;39.67;22.73;;;-3.20;99.90;;;;;;5018989;28;20029;-52
2022/12/18 12:00:24;;;;;;;46.97;21.98;;;-3.50;99.90;;;;;;5019152;27;20071;-50
2022/12/18 12:02:55;;;;;;;40.50;21.30;;;-3.40;99.90;;;;;;5018133;28;20061;-51
2022/12/18 12:05:36;;;;;;;41.40;23.35;;;-3.50;99.90;;;;;;5018679;27;20036;-53
2022/12/18 12:08:36;;;;;;;38.03;20.90;;;-3.40;99.90;;;;;;5017525;28;20079;-53
2022/12/18 12:11:18;;;;;;;38.38;21.90;;;-3.50;99.90;;;;;;5018460;27;20044;-55
2022/12/18 12:13:47;;;;;;;45.00;23.30;;;-3.50;99.90;;;;;;5017305;28;20042;-54
2022/12/18 12:16:17;;;;;;;35.15;20.70;;;-3.30;99.90;;;;;;5026343;27;20029;-51
2022/12/18 12:19:00;;;;;;;37.40;21.10;;;-3.40;99.90;;;;;;5017505;28;20128;-54
2022/12/18 12:21:39;;;;;;;42.42;22.02;;;-3.30;99.90;;;;;;5017423;28;20384;-54
2022/12/18 12:24:49;;;;;;;43.45;22.80;;;-3.30;99.90;;;;;;5018525;27;20037;-56
2022/12/18 12:27:42;;;;;;;43.75;24.02;;;-3.60;99.90;;;;;;5017316;28;20037;-55
2022/12/18 12:30:33;;;;;;;51.58;25.70;;;-3.70;99.90;;;;;;5018813;27;20399;-53
2022/12/18 12:33:19;;;;;;;61.53;26.67;;;-3.50;99.90;;;;;;5017676;28;20482;-54
2022/12/18 12:36:09;;;;;;;50.20;24.20;;;-3.60;99.90;;;;;;5005830;28;20053;-52
2022/12/18 12:38:50;;;;;;;53.03;26.65;;;-3.40;99.90;;;;;;5016742;28;20053;-51
2022/12/18 12:44:09;;;;;;;68.35;29.85;;;-3.10;99.90;;;;;;5016061;28;20061;-53
2022/12/18 12:46:39;;;;;;;53.05;27.25;;;-3.40;99.90;;;;;;5016147;28;20094;-51
2022/12/18 12:49:13;;;;;;;57.78;26.02;;;-3.30;99.90;;;;;;5017291;28;20033;-52
2022/12/18 12:51:42;;;;;;;57.80;27.10;;;-3.30;99.90;;;;;;5017219;28;20025;-55
2022/12/18 12:54:24;;;;;;;59.63;29.52;;;-3.20;99.90;;;;;;5017366;28;20021;-53
2022/12/18 12:56:56;;;;;;;58.85;29.40;;;-3.30;99.90;;;;;;5017463;28;20024;-53